sensor_id;sensor_type;location;lat;lon;timestamp;P1;durP1;ratioP1;P2;durP2;ratioP2
68168;SDS011;54981;50.206;15.978;2022-12-26T00:00:21;42.88;;;38.10;;
68168;SDS011;54981;50.206;15.978;2022-12-26T00:03:21;40.10;;;35.75;;
68168;SDS011;54981;50.206;15.978;2022-12-26T00:06:23;42.08;;;37.47;;
68168;SDS011;54981;50.206;15.978;2022-12-26T00:09:25;41.78;;;37.33;;
68168;SDS011;54981;50.206;15.978;2022-12-26T00:12:26;40.38;;;36.00;;
68168;SDS011;54981;50.206;15.978;2022-12-26T00:15:26;40.17;;;35.92;;
68168;SDS011;54981;50.206;15.978;2022-12-26T00:18:27;40.47;;;35.90;;
68168;SDS011;54981;50.206;15.978;2022-12-26T00:21:27;37.20;;;33.08;;
68168;SDS011;54981;50.206;15.978;2022-12-26T00:24:28;42.67;;;35.97;;
68168;SDS011;54981;50.206;15.978;2022-12-26T00:27:29;42.47;;;37.97;;
68168;SDS011;54981;50.206;15.978;2022-12-26T00:30:29;45.15;;;40.35;;
68168;SDS011;54981;50.206;15.978;2022-12-26T00:33:29;44.58;;;38.92;;
68168;SDS011;54981;50.206;15.978;2022-12-26T00:36:31;43.13;;;38.50;;
68168;SDS011;54981;50.206;15.978;2022-12-26T00:39:32;42.63;;;37.22;;
68168;SDS011;54981;50.206;15.978;2022-12-26T00:42:33;45.05;;;37.63;;
68168;SDS011;54981;50.206;15.978;2022-12-26T00:45:33;42.50;;;38.13;;
68168;SDS011;54981;50.206;15.978;2022-12-26T00:48:34;43.65;;;38.67;;
68168;SDS011;54981;50.206;15.978;2022-12-26T00:51:34;44.65;;;39.92;;
68168;SDS011;54981;50.206;15.978;2022-12-26T00:54:35;44.90;;;40.10;;
68168;SDS011;54981;50.206;15.978;2022-12-26T00:57:35;49.25;;;42.40;;
68168;SDS011;54981;50.206;15.978;2022-12-26T01:00:35;86.13;;;60.47;;
68168;SDS011;54981;50.206;15.978;2022-12-26T01:03:36;65.72;;;49.88;;
68168;SDS011;54981;50.206;15.978;2022-12-26T01:06:36;85.90;;;59.33;;
68168;SDS011;54981;50.206;15.978;2022-12-26T01:09:37;69.22;;;53.53;;
68168;SDS011;54981;50.206;15.978;2022-12-26T01:12:37;51.78;;;44.42;;
68168;SDS011;54981;50.206;15.978;2022-12-26T01:15:38;47.08;;;42.15;;
68168;SDS011;54981;50.206;15.978;2022-12-26T01:18:39;46.15;;;41.53;;
68168;SDS011;54981;50.206;15.978;2022-12-26T01:21:39;43.17;;;38.60;;
68168;SDS011;54981;50.206;15.978;2022-12-26T01:24:41;43.38;;;38.70;;
68168;SDS011;54981;50.206;15.978;2022-12-26T01:27:42;43.83;;;39.10;;
68168;SDS011;54981;50.206;15.978;2022-12-26T01:30:42;44.50;;;39.75;;
68168;SDS011;54981;50.206;15.978;2022-12-26T01:33:43;44.60;;;39.78;;
68168;SDS011;54981;50.206;15.978;2022-12-26T01:36:43;45.45;;;40.47;;
68168;SDS011;54981;50.206;15.978;2022-12-26T01:39:43;46.78;;;41.72;;
68168;SDS011;54981;50.206;15.978;2022-12-26T01:42:44;44.58;;;39.85;;
68168;SDS011;54981;50.206;15.978;2022-12-26T01:45:45;46.25;;;41.17;;
68168;SDS011;54981;50.206;15.978;2022-12-26T01:48:50;44.08;;;39.35;;
68168;SDS011;54981;50.206;15.978;2022-12-26T01:51:52;46.35;;;41.25;;
68168;SDS011;54981;50.206;15.978;2022-12-26T01:54:58;45.65;;;40.80;;
68168;SDS011;54981;50.206;15.978;2022-12-26T01:58:04;44.78;;;39.60;;
68168;SDS011;54981;50.206;15.978;2022-12-26T02:01:07;46.10;;;40.38;;
68168;SDS011;54981;50.206;15.978;2022-12-26T02:04:10;44.03;;;38.88;;
68168;SDS011;54981;50.206;15.978;2022-12-26T02:07:33;48.47;;;42.03;;
68168;SDS011;54981;50.206;15.978;2022-12-26T02:10:37;46.03;;;41.20;;
68168;SDS011;54981;50.206;15.978;2022-12-26T02:13:42;44.97;;;40.08;;
68168;SDS011;54981;50.206;15.978;2022-12-26T02:16:43;45.80;;;40.47;;
68168;SDS011;54981;50.206;15.978;2022-12-26T02:19:52;46.28;;;39.55;;
68168;SDS011;54981;50.206;15.978;2022-12-26T02:43:44;42.90;;;38.22;;
68168;SDS011;54981;50.206;15.978;2022-12-26T02:46:34;43.13;;;38.63;;
68168;SDS011;54981;50.206;15.978;2022-12-26T02:50:16;44.95;;;40.03;;
68168;SDS011;54981;50.206;15.978;2022-12-26T02:57:17;46.25;;;40.08;;
68168;SDS011;54981;50.206;15.978;2022-12-26T03:00:39;47.05;;;41.08;;
68168;SDS011;54981;50.206;15.978;2022-12-26T03:04:03;52.42;;;43.65;;
68168;SDS011;54981;50.206;15.978;2022-12-26T03:07:31;47.10;;;41.20;;
68168;SDS011;54981;50.206;15.978;2022-12-26T03:10:54;49.88;;;42.05;;
68168;SDS011;54981;50.206;15.978;2022-12-26T03:14:16;51.67;;;42.85;;
68168;SDS011;54981;50.206;15.978;2022-12-26T03:17:30;49.88;;;43.38;;
68168;SDS011;54981;50.206;15.978;2022-12-26T03:20:37;45.80;;;40.80;;
68168;SDS011;54981;50.206;15.978;2022-12-26T03:23:38;46.22;;;41.25;;
68168;SDS011;54981;50.206;15.978;2022-12-26T03:29:47;45.27;;;39.57;;
68168;SDS011;54981;50.206;15.978;2022-12-26T03:33:06;45.95;;;39.75;;
68168;SDS011;54981;50.206;15.978;2022-12-26T03:40:13;46.03;;;40.90;;
68168;SDS011;54981;50.206;15.978;2022-12-26T03:43:47;47.67;;;39.45;;
68168;SDS011;54981;50.206;15.978;2022-12-26T03:47:23;44.58;;;39.78;;
68168;SDS011;54981;50.206;15.978;2022-12-26T03:50:48;43.40;;;38.53;;
68168;SDS011;54981;50.206;15.978;2022-12-26T03:54:11;46.83;;;39.67;;
68168;SDS011;54981;50.206;15.978;2022-12-26T03:57:44;46.75;;;40.45;;
68168;SDS011;54981;50.206;15.978;2022-12-26T04:01:17;45.37;;;39.33;;
68168;SDS011;54981;50.206;15.978;2022-12-26T04:04:39;43.70;;;38.90;;
68168;SDS011;54981;50.206;15.978;2022-12-26T04:08:04;46.33;;;40.53;;
68168;SDS011;54981;50.206;15.978;2022-12-26T04:11:30;46.63;;;40.85;;
68168;SDS011;54981;50.206;15.978;2022-12-26T04:14:57;44.65;;;37.35;;
68168;SDS011;54981;50.206;15.978;2022-12-26T04:18:21;43.13;;;38.50;;
68168;SDS011;54981;50.206;15.978;2022-12-26T04:21:50;42.58;;;37.83;;
68168;SDS011;54981;50.206;15.978;2022-12-26T04:25:33;41.95;;;37.55;;
68168;SDS011;54981;50.206;15.978;2022-12-26T04:29:03;41.03;;;35.63;;
68168;SDS011;54981;50.206;15.978;2022-12-26T04:32:24;42.30;;;37.60;;
68168;SDS011;54981;50.206;15.978;2022-12-26T04:39:12;43.78;;;39.25;;
68168;SDS011;54981;50.206;15.978;2022-12-26T04:42:37;43.90;;;39.00;;
68168;SDS011;54981;50.206;15.978;2022-12-26T04:45:59;41.05;;;36.63;;
68168;SDS011;54981;50.206;15.978;2022-12-26T04:49:02;43.25;;;37.50;;
68168;SDS011;54981;50.206;15.978;2022-12-26T04:52:23;40.20;;;35.83;;
68168;SDS011;54981;50.206;15.978;2022-12-26T04:55:24;41.53;;;34.92;;
68168;SDS011;54981;50.206;15.978;2022-12-26T04:58:29;38.67;;;33.97;;
68168;SDS011;54981;50.206;15.978;2022-12-26T05:01:29;40.88;;;36.22;;
68168;SDS011;54981;50.206;15.978;2022-12-26T05:04:48;41.25;;;36.58;;
68168;SDS011;54981;50.206;15.978;2022-12-26T05:08:21;42.33;;;37.72;;
68168;SDS011;54981;50.206;15.978;2022-12-26T05:11:43;39.38;;;35.20;;
68168;SDS011;54981;50.206;15.978;2022-12-26T05:14:46;40.88;;;36.38;;
68168;SDS011;54981;50.206;15.978;2022-12-26T05:17:46;39.15;;;34.92;;
68168;SDS011;54981;50.206;15.978;2022-12-26T05:21:12;39.05;;;34.95;;
68168;SDS011;54981;50.206;15.978;2022-12-26T05:24:36;36.38;;;32.53;;
68168;SDS011;54981;50.206;15.978;2022-12-26T05:27:58;39.67;;;34.83;;
68168;SDS011;54981;50.206;15.978;2022-12-26T05:31:31;38.72;;;34.33;;
68168;SDS011;54981;50.206;15.978;2022-12-26T05:34:31;37.70;;;33.80;;
68168;SDS011;54981;50.206;15.978;2022-12-26T05:37:31;39.40;;;35.35;;
68168;SDS011;54981;50.206;15.978;2022-12-26T05:40:32;37.42;;;33.58;;
68168;SDS011;54981;50.206;15.978;2022-12-26T05:43:32;40.08;;;35.75;;
68168;SDS011;54981;50.206;15.978;2022-12-26T05:46:32;39.55;;;35.03;;
68168;SDS011;54981;50.206;15.978;2022-12-26T05:49:33;36.45;;;32.83;;
68168;SDS011;54981;50.206;15.978;2022-12-26T05:52:34;61.45;;;55.40;;
68168;SDS011;54981;50.206;15.978;2022-12-26T05:55:34;46.85;;;41.95;;
68168;SDS011;54981;50.206;15.978;2022-12-26T05:58:34;36.28;;;32.33;;
68168;SDS011;54981;50.206;15.978;2022-12-26T06:01:35;39.67;;;35.30;;
68168;SDS011;54981;50.206;15.978;2022-12-26T06:04:35;39.53;;;35.35;;
68168;SDS011;54981;50.206;15.978;2022-12-26T06:07:36;39.03;;;34.92;;
68168;SDS011;54981;50.206;15.978;2022-12-26T06:10:36;39.60;;;35.30;;
68168;SDS011;54981;50.206;15.978;2022-12-26T06:13:36;38.90;;;34.78;;
68168;SDS011;54981;50.206;15.978;2022-12-26T06:16:38;39.63;;;34.78;;
68168;SDS011;54981;50.206;15.978;2022-12-26T06:19:38;40.22;;;35.78;;
68168;SDS011;54981;50.206;15.978;2022-12-26T06:22:39;41.65;;;37.15;;
68168;SDS011;54981;50.206;15.978;2022-12-26T06:25:39;41.90;;;37.60;;
68168;SDS011;54981;50.206;15.978;2022-12-26T06:28:40;43.55;;;38.50;;
68168;SDS011;54981;50.206;15.978;2022-12-26T06:31:42;40.40;;;36.28;;
68168;SDS011;54981;50.206;15.978;2022-12-26T06:34:42;40.83;;;36.33;;
68168;SDS011;54981;50.206;15.978;2022-12-26T06:37:43;43.40;;;38.63;;
68168;SDS011;54981;50.206;15.978;2022-12-26T06:40:43;43.45;;;38.83;;
68168;SDS011;54981;50.206;15.978;2022-12-26T06:43:43;43.08;;;38.17;;
68168;SDS011;54981;50.206;15.978;2022-12-26T06:46:44;42.67;;;37.60;;
68168;SDS011;54981;50.206;15.978;2022-12-26T06:49:45;46.47;;;39.65;;
68168;SDS011;54981;50.206;15.978;2022-12-26T06:52:45;42.08;;;37.50;;
68168;SDS011;54981;50.206;15.978;2022-12-26T06:55:45;41.13;;;34.88;;
68168;SDS011;54981;50.206;15.978;2022-12-26T06:58:46;43.83;;;38.58;;
68168;SDS011;54981;50.206;15.978;2022-12-26T07:01:47;47.22;;;40.22;;
68168;SDS011;54981;50.206;15.978;2022-12-26T07:04:48;45.67;;;40.70;;
68168;SDS011;54981;50.206;15.978;2022-12-26T07:07:51;45.10;;;38.33;;
68168;SDS011;54981;50.206;15.978;2022-12-26T07:10:51;53.22;;;47.33;;
68168;SDS011;54981;50.206;15.978;2022-12-26T07:13:52;60.80;;;51.03;;
68168;SDS011;54981;50.206;15.978;2022-12-26T07:16:53;70.20;;;62.85;;
68168;SDS011;54981;50.206;15.978;2022-12-26T07:19:53;47.03;;;41.95;;
68168;SDS011;54981;50.206;15.978;2022-12-26T07:22:54;50.78;;;42.80;;
68168;SDS011;54981;50.206;15.978;2022-12-26T07:25:54;41.53;;;37.03;;
68168;SDS011;54981;50.206;15.978;2022-12-26T07:28:55;42.92;;;36.83;;
68168;SDS011;54981;50.206;15.978;2022-12-26T07:31:56;39.33;;;35.10;;
68168;SDS011;54981;50.206;15.978;2022-12-26T07:34:57;37.33;;;33.50;;
68168;SDS011;54981;50.206;15.978;2022-12-26T07:37:58;43.38;;;36.40;;
68168;SDS011;54981;50.206;15.978;2022-12-26T07:40:58;42.53;;;37.85;;
68168;SDS011;54981;50.206;15.978;2022-12-26T07:44:19;45.42;;;39.10;;
68168;SDS011;54981;50.206;15.978;2022-12-26T07:47:19;42.30;;;36.80;;
68168;SDS011;54981;50.206;15.978;2022-12-26T07:50:20;40.08;;;34.42;;
68168;SDS011;54981;50.206;15.978;2022-12-26T07:53:21;40.00;;;35.67;;
68168;SDS011;54981;50.206;15.978;2022-12-26T07:56:22;41.05;;;36.72;;
68168;SDS011;54981;50.206;15.978;2022-12-26T07:59:22;43.25;;;38.75;;
68168;SDS011;54981;50.206;15.978;2022-12-26T08:02:23;40.00;;;35.67;;
68168;SDS011;54981;50.206;15.978;2022-12-26T08:05:23;38.20;;;34.38;;
68168;SDS011;54981;50.206;15.978;2022-12-26T08:08:24;41.47;;;36.80;;
68168;SDS011;54981;50.206;15.978;2022-12-26T08:11:24;51.95;;;46.45;;
68168;SDS011;54981;50.206;15.978;2022-12-26T08:14:25;52.85;;;47.53;;
68168;SDS011;54981;50.206;15.978;2022-12-26T08:17:25;59.58;;;53.28;;
68168;SDS011;54981;50.206;15.978;2022-12-26T08:20:25;56.22;;;50.40;;
68168;SDS011;54981;50.206;15.978;2022-12-26T08:23:26;64.25;;;58.25;;
68168;SDS011;54981;50.206;15.978;2022-12-26T08:26:26;48.80;;;43.90;;
68168;SDS011;54981;50.206;15.978;2022-12-26T08:29:27;42.70;;;38.22;;
68168;SDS011;54981;50.206;15.978;2022-12-26T08:32:27;43.83;;;39.20;;
68168;SDS011;54981;50.206;15.978;2022-12-26T08:35:27;41.17;;;36.78;;
68168;SDS011;54981;50.206;15.978;2022-12-26T08:38:29;48.10;;;42.63;;
68168;SDS011;54981;50.206;15.978;2022-12-26T08:41:29;55.45;;;49.17;;
68168;SDS011;54981;50.206;15.978;2022-12-26T08:44:29;49.00;;;43.10;;
68168;SDS011;54981;50.206;15.978;2022-12-26T08:47:30;73.68;;;65.68;;
68168;SDS011;54981;50.206;15.978;2022-12-26T08:50:30;60.53;;;54.45;;
68168;SDS011;54981;50.206;15.978;2022-12-26T08:53:31;49.47;;;44.22;;
68168;SDS011;54981;50.206;15.978;2022-12-26T08:56:34;40.30;;;34.22;;
68168;SDS011;54981;50.206;15.978;2022-12-26T08:59:35;38.45;;;34.40;;
68168;SDS011;54981;50.206;15.978;2022-12-26T09:02:35;43.83;;;39.25;;
68168;SDS011;54981;50.206;15.978;2022-12-26T09:05:35;46.42;;;41.58;;
68168;SDS011;54981;50.206;15.978;2022-12-26T09:08:36;48.22;;;43.03;;
68168;SDS011;54981;50.206;15.978;2022-12-26T09:11:37;45.08;;;40.17;;
68168;SDS011;54981;50.206;15.978;2022-12-26T09:14:39;42.88;;;38.47;;
68168;SDS011;54981;50.206;15.978;2022-12-26T09:17:39;44.33;;;39.58;;
68168;SDS011;54981;50.206;15.978;2022-12-26T09:20:39;46.33;;;39.75;;
68168;SDS011;54981;50.206;15.978;2022-12-26T09:23:40;43.78;;;39.13;;
68168;SDS011;54981;50.206;15.978;2022-12-26T09:26:41;40.83;;;35.15;;
68168;SDS011;54981;50.206;15.978;2022-12-26T09:29:42;39.78;;;35.53;;
68168;SDS011;54981;50.206;15.978;2022-12-26T09:32:42;49.67;;;44.15;;
68168;SDS011;54981;50.206;15.978;2022-12-26T09:35:43;107.78;;;87.72;;
68168;SDS011;54981;50.206;15.978;2022-12-26T09:38:44;55.30;;;49.42;;
68168;SDS011;54981;50.206;15.978;2022-12-26T09:48:11;47.30;;;42.25;;
68168;SDS011;54981;50.206;15.978;2022-12-26T09:51:14;43.28;;;37.47;;
68168;SDS011;54981;50.206;15.978;2022-12-26T09:54:18;50.20;;;43.42;;
68168;SDS011;54981;50.206;15.978;2022-12-26T09:57:33;47.38;;;42.08;;
68168;SDS011;54981;50.206;15.978;2022-12-26T10:00:50;44.67;;;39.97;;
68168;SDS011;54981;50.206;15.978;2022-12-26T10:03:55;50.83;;;41.20;;
68168;SDS011;54981;50.206;15.978;2022-12-26T10:07:01;51.45;;;45.42;;
68168;SDS011;54981;50.206;15.978;2022-12-26T10:10:08;52.95;;;45.50;;
68168;SDS011;54981;50.206;15.978;2022-12-26T10:13:26;46.30;;;41.15;;
68168;SDS011;54981;50.206;15.978;2022-12-26T10:26:48;46.42;;;41.35;;
68168;SDS011;54981;50.206;15.978;2022-12-26T10:29:54;47.03;;;39.67;;
68168;SDS011;54981;50.206;15.978;2022-12-26T10:32:59;43.97;;;39.30;;
68168;SDS011;54981;50.206;15.978;2022-12-26T10:36:03;49.53;;;42.10;;
68168;SDS011;54981;50.206;15.978;2022-12-26T10:39:04;57.80;;;49.55;;
68168;SDS011;54981;50.206;15.978;2022-12-26T10:42:26;52.05;;;46.22;;
68168;SDS011;54981;50.206;15.978;2022-12-26T10:45:41;43.53;;;38.90;;
68168;SDS011;54981;50.206;15.978;2022-12-26T10:49:02;52.88;;;45.83;;
68168;SDS011;54981;50.206;15.978;2022-12-26T10:52:02;42.97;;;36.50;;
68168;SDS011;54981;50.206;15.978;2022-12-26T10:55:04;54.53;;;44.40;;
68168;SDS011;54981;50.206;15.978;2022-12-26T10:58:18;49.78;;;40.95;;
68168;SDS011;54981;50.206;15.978;2022-12-26T11:01:32;39.58;;;35.28;;
68168;SDS011;54981;50.206;15.978;2022-12-26T11:04:33;37.03;;;31.83;;
68168;SDS011;54981;50.206;15.978;2022-12-26T11:07:35;45.45;;;35.75;;
68168;SDS011;54981;50.206;15.978;2022-12-26T11:10:37;35.78;;;32.22;;
68168;SDS011;54981;50.206;15.978;2022-12-26T11:13:38;50.35;;;38.63;;
68168;SDS011;54981;50.206;15.978;2022-12-26T11:16:47;46.40;;;37.25;;
68168;SDS011;54981;50.206;15.978;2022-12-26T11:19:48;44.35;;;37.83;;
68168;SDS011;54981;50.206;15.978;2022-12-26T11:22:48;45.50;;;40.65;;
68168;SDS011;54981;50.206;15.978;2022-12-26T11:25:51;30.30;;;27.15;;
68168;SDS011;54981;50.206;15.978;2022-12-26T11:29:06;31.90;;;28.42;;
68168;SDS011;54981;50.206;15.978;2022-12-26T11:32:15;32.97;;;29.55;;
68168;SDS011;54981;50.206;15.978;2022-12-26T11:35:23;35.03;;;31.42;;
68168;SDS011;54981;50.206;15.978;2022-12-26T11:38:26;24.10;;;21.60;;
68168;SDS011;54981;50.206;15.978;2022-12-26T11:41:38;16.20;;;14.70;;
68168;SDS011;54981;50.206;15.978;2022-12-26T11:44:41;13.77;;;12.57;;
68168;SDS011;54981;50.206;15.978;2022-12-26T11:47:44;13.02;;;11.60;;
68168;SDS011;54981;50.206;15.978;2022-12-26T11:50:45;15.10;;;13.70;;
68168;SDS011;54981;50.206;15.978;2022-12-26T11:53:46;16.33;;;15.00;;
68168;SDS011;54981;50.206;15.978;2022-12-26T11:56:46;19.17;;;17.40;;
68168;SDS011;54981;50.206;15.978;2022-12-26T11:59:48;20.25;;;18.40;;
68168;SDS011;54981;50.206;15.978;2022-12-26T12:02:50;21.80;;;19.52;;
68168;SDS011;54981;50.206;15.978;2022-12-26T12:06:00;25.08;;;22.55;;
68168;SDS011;54981;50.206;15.978;2022-12-26T12:15:23;17.20;;;15.40;;
68168;SDS011;54981;50.206;15.978;2022-12-26T12:18:40;17.25;;;15.55;;
68168;SDS011;54981;50.206;15.978;2022-12-26T12:25:35;15.45;;;13.98;;
68168;SDS011;54981;50.206;15.978;2022-12-26T12:32:24;42.72;;;31.55;;
68168;SDS011;54981;50.206;15.978;2022-12-26T12:42:38;18.90;;;16.92;;
68168;SDS011;54981;50.206;15.978;2022-12-26T12:46:11;22.77;;;19.88;;
68168;SDS011;54981;50.206;15.978;2022-12-26T12:49:34;18.35;;;16.52;;
68168;SDS011;54981;50.206;15.978;2022-12-26T13:06:16;20.15;;;18.15;;
68168;SDS011;54981;50.206;15.978;2022-12-26T13:09:22;27.17;;;22.83;;
68168;SDS011;54981;50.206;15.978;2022-12-26T13:12:31;30.13;;;24.20;;
68168;SDS011;54981;50.206;15.978;2022-12-26T13:15:43;29.50;;;26.25;;
68168;SDS011;54981;50.206;15.978;2022-12-26T13:18:49;18.52;;;16.65;;
68168;SDS011;54981;50.206;15.978;2022-12-26T13:21:53;21.23;;;18.92;;
68168;SDS011;54981;50.206;15.978;2022-12-26T13:24:59;18.58;;;16.02;;
68168;SDS011;54981;50.206;15.978;2022-12-26T13:28:01;30.20;;;22.48;;
68168;SDS011;54981;50.206;15.978;2022-12-26T13:31:11;43.17;;;27.20;;
68168;SDS011;54981;50.206;15.978;2022-12-26T13:34:16;26.48;;;21.27;;
68168;SDS011;54981;50.206;15.978;2022-12-26T13:40:34;56.20;;;34.35;;
68168;SDS011;54981;50.206;15.978;2022-12-26T13:43:35;17.70;;;15.75;;
68168;SDS011;54981;50.206;15.978;2022-12-26T13:47:02;16.88;;;14.57;;
68168;SDS011;54981;50.206;15.978;2022-12-26T13:54:01;52.78;;;35.85;;
68168;SDS011;54981;50.206;15.978;2022-12-26T13:57:14;22.02;;;19.65;;
68168;SDS011;54981;50.206;15.978;2022-12-26T14:00:42;30.20;;;22.58;;
68168;SDS011;54981;50.206;15.978;2022-12-26T14:10:24;36.08;;;32.15;;
68168;SDS011;54981;50.206;15.978;2022-12-26T14:13:57;26.85;;;24.13;;
68168;SDS011;54981;50.206;15.978;2022-12-26T14:17:14;25.77;;;23.25;;
68168;SDS011;54981;50.206;15.978;2022-12-26T14:23:47;33.80;;;26.33;;
68168;SDS011;54981;50.206;15.978;2022-12-26T14:37:18;20.00;;;18.00;;
68168;SDS011;54981;50.206;15.978;2022-12-26T14:40:30;17.83;;;16.13;;
68168;SDS011;54981;50.206;15.978;2022-12-26T14:43:38;57.75;;;43.90;;
68168;SDS011;54981;50.206;15.978;2022-12-26T14:49:40;50.03;;;36.80;;
68168;SDS011;54981;50.206;15.978;2022-12-26T14:52:41;47.97;;;34.15;;
68168;SDS011;54981;50.206;15.978;2022-12-26T14:55:48;29.20;;;23.80;;
68168;SDS011;54981;50.206;15.978;2022-12-26T15:05:35;19.40;;;17.38;;
68168;SDS011;54981;50.206;15.978;2022-12-26T15:08:39;25.23;;;21.13;;
68168;SDS011;54981;50.206;15.978;2022-12-26T15:12:10;20.17;;;18.13;;
68168;SDS011;54981;50.206;15.978;2022-12-26T15:15:46;20.95;;;17.77;;
68168;SDS011;54981;50.206;15.978;2022-12-26T15:19:46;20.88;;;18.45;;
68168;SDS011;54981;50.206;15.978;2022-12-26T15:32:55;16.80;;;15.20;;
68168;SDS011;54981;50.206;15.978;2022-12-26T15:36:21;18.40;;;16.70;;
68168;SDS011;54981;50.206;15.978;2022-12-26T15:59:46;19.77;;;17.77;;
68168;SDS011;54981;50.206;15.978;2022-12-26T16:06:29;19.00;;;17.10;;
68168;SDS011;54981;50.206;15.978;2022-12-26T16:09:43;15.60;;;14.02;;
68168;SDS011;54981;50.206;15.978;2022-12-26T16:12:56;40.20;;;34.95;;
68168;SDS011;54981;50.206;15.978;2022-12-26T16:16:04;19.55;;;17.58;;
68168;SDS011;54981;50.206;15.978;2022-12-26T16:22:16;20.35;;;18.45;;
68168;SDS011;54981;50.206;15.978;2022-12-26T16:25:44;16.63;;;14.95;;
68168;SDS011;54981;50.206;15.978;2022-12-26T16:28:46;15.30;;;13.75;;
68168;SDS011;54981;50.206;15.978;2022-12-26T16:31:47;15.38;;;13.95;;
68168;SDS011;54981;50.206;15.978;2022-12-26T16:34:48;14.13;;;12.82;;
68168;SDS011;54981;50.206;15.978;2022-12-26T16:37:49;13.50;;;12.23;;
68168;SDS011;54981;50.206;15.978;2022-12-26T16:40:51;15.30;;;13.88;;
68168;SDS011;54981;50.206;15.978;2022-12-26T16:43:52;14.15;;;12.80;;
68168;SDS011;54981;50.206;15.978;2022-12-26T16:46:54;12.82;;;11.25;;
68168;SDS011;54981;50.206;15.978;2022-12-26T16:49:55;13.13;;;11.85;;
68168;SDS011;54981;50.206;15.978;2022-12-26T16:53:00;17.77;;;15.98;;
68168;SDS011;54981;50.206;15.978;2022-12-26T16:59:51;16.45;;;15.02;;
68168;SDS011;54981;50.206;15.978;2022-12-26T17:02:55;99.85;;;63.95;;
68168;SDS011;54981;50.206;15.978;2022-12-26T17:05:58;101.63;;;66.53;;
68168;SDS011;54981;50.206;15.978;2022-12-26T17:09:08;61.03;;;46.47;;
68168;SDS011;54981;50.206;15.978;2022-12-26T17:12:54;17.42;;;15.73;;
68168;SDS011;54981;50.206;15.978;2022-12-26T17:15:38;49.17;;;44.67;;
68168;SDS011;54981;50.206;15.978;2022-12-26T17:18:54;69.53;;;63.97;;
68168;SDS011;54981;50.206;15.978;2022-12-26T17:25:18;41.60;;;38.58;;
68168;SDS011;54981;50.206;15.978;2022-12-26T17:28:22;21.85;;;19.95;;
68168;SDS011;54981;50.206;15.978;2022-12-26T17:31:32;28.02;;;25.85;;
68168;SDS011;54981;50.206;15.978;2022-12-26T17:34:36;15.88;;;14.57;;
68168;SDS011;54981;50.206;15.978;2022-12-26T17:37:38;33.33;;;30.52;;
68168;SDS011;54981;50.206;15.978;2022-12-26T17:40:40;16.25;;;14.85;;
68168;SDS011;54981;50.206;15.978;2022-12-26T17:43:41;19.38;;;17.88;;
68168;SDS011;54981;50.206;15.978;2022-12-26T17:46:43;20.60;;;18.88;;
68168;SDS011;54981;50.206;15.978;2022-12-26T17:49:43;16.98;;;15.43;;
68168;SDS011;54981;50.206;15.978;2022-12-26T17:52:44;23.45;;;21.45;;
68168;SDS011;54981;50.206;15.978;2022-12-26T17:55:45;17.52;;;16.13;;
68168;SDS011;54981;50.206;15.978;2022-12-26T17:58:46;21.23;;;19.63;;
68168;SDS011;54981;50.206;15.978;2022-12-26T18:01:46;18.00;;;16.30;;
68168;SDS011;54981;50.206;15.978;2022-12-26T18:04:47;20.73;;;19.02;;
68168;SDS011;54981;50.206;15.978;2022-12-26T18:07:49;37.20;;;33.88;;
68168;SDS011;54981;50.206;15.978;2022-12-26T18:10:50;20.90;;;18.83;;
68168;SDS011;54981;50.206;15.978;2022-12-26T18:13:51;18.23;;;16.80;;
68168;SDS011;54981;50.206;15.978;2022-12-26T18:16:52;25.73;;;23.73;;
68168;SDS011;54981;50.206;15.978;2022-12-26T18:19:52;17.90;;;16.40;;
68168;SDS011;54981;50.206;15.978;2022-12-26T18:22:53;22.40;;;20.42;;
68168;SDS011;54981;50.206;15.978;2022-12-26T18:25:58;16.60;;;15.15;;
68168;SDS011;54981;50.206;15.978;2022-12-26T18:28:59;16.90;;;15.50;;
68168;SDS011;54981;50.206;15.978;2022-12-26T18:32:00;19.38;;;17.67;;
68168;SDS011;54981;50.206;15.978;2022-12-26T18:35:00;19.00;;;17.30;;
68168;SDS011;54981;50.206;15.978;2022-12-26T18:38:00;20.73;;;18.92;;
68168;SDS011;54981;50.206;15.978;2022-12-26T18:41:01;26.58;;;24.48;;
68168;SDS011;54981;50.206;15.978;2022-12-26T18:44:01;17.65;;;16.02;;
68168;SDS011;54981;50.206;15.978;2022-12-26T18:47:02;16.80;;;15.35;;
68168;SDS011;54981;50.206;15.978;2022-12-26T18:50:07;16.38;;;14.88;;
68168;SDS011;54981;50.206;15.978;2022-12-26T18:53:10;16.15;;;14.75;;
68168;SDS011;54981;50.206;15.978;2022-12-26T18:56:15;14.93;;;13.55;;
68168;SDS011;54981;50.206;15.978;2022-12-26T18:59:17;16.75;;;15.25;;
68168;SDS011;54981;50.206;15.978;2022-12-26T19:02:18;26.45;;;21.75;;
68168;SDS011;54981;50.206;15.978;2022-12-26T19:05:20;39.65;;;30.67;;
68168;SDS011;54981;50.206;15.978;2022-12-26T19:08:25;65.63;;;46.60;;
68168;SDS011;54981;50.206;15.978;2022-12-26T19:11:25;56.45;;;45.35;;
68168;SDS011;54981;50.206;15.978;2022-12-26T19:14:26;44.40;;;38.13;;
68168;SDS011;54981;50.206;15.978;2022-12-26T19:17:26;35.92;;;29.17;;
68168;SDS011;54981;50.206;15.978;2022-12-26T19:20:27;38.67;;;33.80;;
68168;SDS011;54981;50.206;15.978;2022-12-26T19:23:27;27.08;;;24.58;;
68168;SDS011;54981;50.206;15.978;2022-12-26T19:26:28;24.23;;;21.50;;
68168;SDS011;54981;50.206;15.978;2022-12-26T19:29:28;22.45;;;20.30;;
68168;SDS011;54981;50.206;15.978;2022-12-26T19:32:29;20.65;;;18.08;;
68168;SDS011;54981;50.206;15.978;2022-12-26T19:35:29;18.45;;;16.52;;
68168;SDS011;54981;50.206;15.978;2022-12-26T19:38:29;19.20;;;16.15;;
68168;SDS011;54981;50.206;15.978;2022-12-26T19:41:30;16.90;;;15.23;;
68168;SDS011;54981;50.206;15.978;2022-12-26T19:44:30;38.03;;;33.90;;
68168;SDS011;54981;50.206;15.978;2022-12-26T19:47:31;59.83;;;46.85;;
68168;SDS011;54981;50.206;15.978;2022-12-26T19:50:33;60.28;;;44.17;;
68168;SDS011;54981;50.206;15.978;2022-12-26T19:53:35;79.55;;;55.17;;
68168;SDS011;54981;50.206;15.978;2022-12-26T19:56:36;75.50;;;49.17;;
68168;SDS011;54981;50.206;15.978;2022-12-26T19:59:36;95.28;;;59.20;;
68168;SDS011;54981;50.206;15.978;2022-12-26T20:02:37;60.65;;;39.05;;
68168;SDS011;54981;50.206;15.978;2022-12-26T20:05:38;58.90;;;34.60;;
68168;SDS011;54981;50.206;15.978;2022-12-26T20:08:41;131.52;;;75.45;;
68168;SDS011;54981;50.206;15.978;2022-12-26T20:11:43;69.00;;;49.25;;
68168;SDS011;54981;50.206;15.978;2022-12-26T20:14:45;19.65;;;17.75;;
68168;SDS011;54981;50.206;15.978;2022-12-26T20:17:46;17.70;;;16.27;;
68168;SDS011;54981;50.206;15.978;2022-12-26T20:20:51;12.23;;;11.32;;
68168;SDS011;54981;50.206;15.978;2022-12-26T20:23:52;12.98;;;11.95;;
68168;SDS011;54981;50.206;15.978;2022-12-26T20:26:53;13.50;;;12.40;;
68168;SDS011;54981;50.206;15.978;2022-12-26T20:29:53;11.63;;;10.68;;
68168;SDS011;54981;50.206;15.978;2022-12-26T20:32:53;12.02;;;11.13;;
68168;SDS011;54981;50.206;15.978;2022-12-26T20:36:01;16.70;;;15.10;;
68168;SDS011;54981;50.206;15.978;2022-12-26T20:39:07;11.68;;;10.77;;